sensor_id;sensor_type;location;lat;lon;timestamp;P1;durP1;ratioP1;P2;durP2;ratioP2
67528;SDS011;54366;51.980;5.856;2023-05-15T00:00:42;13.13;;;11.82;;
67528;SDS011;54366;51.980;5.856;2023-05-15T00:03:09;11.55;;;10.35;;
67528;SDS011;54366;51.980;5.856;2023-05-15T00:05:43;12.40;;;11.20;;
67528;SDS011;54366;51.980;5.856;2023-05-15T00:08:16;12.20;;;11.00;;
67528;SDS011;54366;51.980;5.856;2023-05-15T00:10:42;11.65;;;10.55;;
67528;SDS011;54366;51.980;5.856;2023-05-15T00:13:16;11.55;;;10.35;;
67528;SDS011;54366;51.980;5.856;2023-05-15T00:15:43;12.18;;;11.00;;
67528;SDS011;54366;51.980;5.856;2023-05-15T00:18:16;11.52;;;10.40;;
67528;SDS011;54366;51.980;5.856;2023-05-15T00:20:55;12.13;;;10.88;;
67528;SDS011;54366;51.980;5.856;2023-05-15T00:23:28;13.63;;;11.98;;
67528;SDS011;54366;51.980;5.856;2023-05-15T00:26:08;14.98;;;13.45;;
67528;SDS011;54366;51.980;5.856;2023-05-15T00:28:41;14.63;;;12.45;;
67528;SDS011;54366;51.980;5.856;2023-05-15T00:31:16;15.32;;;13.70;;
67528;SDS011;54366;51.980;5.856;2023-05-15T00:33:42;15.77;;;14.10;;
67528;SDS011;54366;51.980;5.856;2023-05-15T00:36:15;14.68;;;13.18;;
67528;SDS011;54366;51.980;5.856;2023-05-15T00:38:42;18.85;;;16.92;;
67528;SDS011;54366;51.980;5.856;2023-05-15T00:41:15;17.30;;;14.80;;
67528;SDS011;54366;51.980;5.856;2023-05-15T00:43:49;13.65;;;12.35;;
67528;SDS011;54366;51.980;5.856;2023-05-15T00:46:23;14.32;;;12.57;;
67528;SDS011;54366;51.980;5.856;2023-05-15T00:48:57;13.70;;;12.32;;
67528;SDS011;54366;51.980;5.856;2023-05-15T00:51:30;13.10;;;11.80;;
67528;SDS011;54366;51.980;5.856;2023-05-15T00:54:03;13.38;;;12.10;;
67528;SDS011;54366;51.980;5.856;2023-05-15T00:56:36;15.35;;;13.85;;
67528;SDS011;54366;51.980;5.856;2023-05-15T00:59:09;14.38;;;12.98;;
67528;SDS011;54366;51.980;5.856;2023-05-15T01:01:44;12.32;;;10.80;;
67528;SDS011;54366;51.980;5.856;2023-05-15T01:04:17;12.05;;;10.95;;
67528;SDS011;54366;51.980;5.856;2023-05-15T01:06:50;14.00;;;12.57;;
67528;SDS011;54366;51.980;5.856;2023-05-15T01:09:26;15.32;;;13.73;;
67528;SDS011;54366;51.980;5.856;2023-05-15T01:12:00;16.60;;;14.68;;
67528;SDS011;54366;51.980;5.856;2023-05-15T01:14:36;17.15;;;14.95;;
67528;SDS011;54366;51.980;5.856;2023-05-15T01:17:09;17.05;;;15.27;;
67528;SDS011;54366;51.980;5.856;2023-05-15T01:19:42;15.98;;;14.32;;
67528;SDS011;54366;51.980;5.856;2023-05-15T01:22:33;18.17;;;16.05;;
67528;SDS011;54366;51.980;5.856;2023-05-15T01:25:42;17.08;;;15.43;;
67528;SDS011;54366;51.980;5.856;2023-05-15T01:28:32;18.50;;;16.52;;
67528;SDS011;54366;51.980;5.856;2023-05-15T01:31:10;17.67;;;15.95;;
67528;SDS011;54366;51.980;5.856;2023-05-15T01:33:52;17.35;;;15.05;;
67528;SDS011;54366;51.980;5.856;2023-05-15T01:36:35;16.77;;;15.10;;
67528;SDS011;54366;51.980;5.856;2023-05-15T01:39:14;17.65;;;15.43;;
67528;SDS011;54366;51.980;5.856;2023-05-15T01:41:57;20.25;;;18.13;;
67528;SDS011;54366;51.980;5.856;2023-05-15T01:44:36;20.25;;;17.55;;
67528;SDS011;54366;51.980;5.856;2023-05-15T01:47:12;18.70;;;16.80;;
67528;SDS011;54366;51.980;5.856;2023-05-15T01:49:49;18.10;;;16.27;;
67528;SDS011;54366;51.980;5.856;2023-05-15T01:52:27;17.52;;;15.65;;
67528;SDS011;54366;51.980;5.856;2023-05-15T01:55:02;18.65;;;16.48;;
67528;SDS011;54366;51.980;5.856;2023-05-15T01:57:36;18.95;;;16.25;;
67528;SDS011;54366;51.980;5.856;2023-05-15T02:00:04;17.27;;;15.40;;
67528;SDS011;54366;51.980;5.856;2023-05-15T02:02:41;16.45;;;14.18;;
67528;SDS011;54366;51.980;5.856;2023-05-15T02:05:17;17.08;;;15.27;;
67528;SDS011;54366;51.980;5.856;2023-05-15T02:07:51;18.83;;;16.83;;
67528;SDS011;54366;51.980;5.856;2023-05-15T02:10:18;18.35;;;15.60;;
67528;SDS011;54366;51.980;5.856;2023-05-15T02:12:52;17.35;;;15.60;;
67528;SDS011;54366;51.980;5.856;2023-05-15T02:15:20;16.85;;;14.70;;
67528;SDS011;54366;51.980;5.856;2023-05-15T02:17:54;17.23;;;15.57;;
67528;SDS011;54366;51.980;5.856;2023-05-15T02:20:21;19.65;;;17.70;;
67528;SDS011;54366;51.980;5.856;2023-05-15T02:22:54;18.08;;;15.60;;
67528;SDS011;54366;51.980;5.856;2023-05-15T02:25:40;17.85;;;15.98;;
67528;SDS011;54366;51.980;5.856;2023-05-15T02:29:03;20.38;;;16.70;;
67528;SDS011;54366;51.980;5.856;2023-05-15T02:31:50;19.73;;;16.38;;
67528;SDS011;54366;51.980;5.856;2023-05-15T02:38:10;20.02;;;18.02;;
67528;SDS011;54366;51.980;5.856;2023-05-15T02:40:48;16.83;;;15.13;;
67528;SDS011;54366;51.980;5.856;2023-05-15T02:43:22;20.50;;;15.52;;
67528;SDS011;54366;51.980;5.856;2023-05-15T02:45:50;18.20;;;16.30;;
67528;SDS011;54366;51.980;5.856;2023-05-15T02:48:24;15.95;;;13.23;;
67528;SDS011;54366;51.980;5.856;2023-05-15T02:50:58;14.20;;;12.70;;
67528;SDS011;54366;51.980;5.856;2023-05-15T02:53:31;16.83;;;15.13;;
67528;SDS011;54366;51.980;5.856;2023-05-15T02:56:05;17.90;;;15.43;;
67528;SDS011;54366;51.980;5.856;2023-05-15T02:58:38;16.13;;;14.63;;
67528;SDS011;54366;51.980;5.856;2023-05-15T03:01:12;19.42;;;16.02;;
67528;SDS011;54366;51.980;5.856;2023-05-15T03:03:46;17.38;;;15.48;;
67528;SDS011;54366;51.980;5.856;2023-05-15T03:06:18;17.75;;;16.00;;
67528;SDS011;54366;51.980;5.856;2023-05-15T03:08:45;18.02;;;16.23;;
67528;SDS011;54366;51.980;5.856;2023-05-15T03:11:17;16.98;;;15.27;;
67528;SDS011;54366;51.980;5.856;2023-05-15T03:13:45;16.08;;;14.40;;
67528;SDS011;54366;51.980;5.856;2023-05-15T03:16:18;15.27;;;13.57;;
67528;SDS011;54366;51.980;5.856;2023-05-15T03:18:51;20.65;;;18.48;;
67528;SDS011;54366;51.980;5.856;2023-05-15T03:21:30;18.90;;;17.00;;
67528;SDS011;54366;51.980;5.856;2023-05-15T03:24:03;22.05;;;18.98;;
67528;SDS011;54366;51.980;5.856;2023-05-15T03:26:43;31.92;;;19.27;;
67528;SDS011;54366;51.980;5.856;2023-05-15T03:29:16;19.52;;;16.60;;
67528;SDS011;54366;51.980;5.856;2023-05-15T03:31:42;20.63;;;18.08;;
67528;SDS011;54366;51.980;5.856;2023-05-15T03:34:15;19.25;;;17.15;;
67528;SDS011;54366;51.980;5.856;2023-05-15T03:36:48;25.92;;;19.98;;
67528;SDS011;54366;51.980;5.856;2023-05-15T03:39:21;30.73;;;22.02;;
67528;SDS011;54366;51.980;5.856;2023-05-15T03:41:54;22.05;;;19.67;;
67528;SDS011;54366;51.980;5.856;2023-05-15T03:44:21;22.63;;;19.70;;
67528;SDS011;54366;51.980;5.856;2023-05-15T03:46:56;22.15;;;18.48;;
67528;SDS011;54366;51.980;5.856;2023-05-15T03:49:22;32.10;;;26.83;;
67528;SDS011;54366;51.980;5.856;2023-05-15T03:51:56;26.70;;;22.67;;
67528;SDS011;54366;51.980;5.856;2023-05-15T03:54:29;27.70;;;22.13;;
67528;SDS011;54366;51.980;5.856;2023-05-15T03:57:02;29.02;;;24.48;;
67528;SDS011;54366;51.980;5.856;2023-05-15T03:59:35;26.67;;;22.52;;
67528;SDS011;54366;51.980;5.856;2023-05-15T04:02:08;20.95;;;18.63;;
67528;SDS011;54366;51.980;5.856;2023-05-15T04:04:41;26.98;;;22.75;;
67528;SDS011;54366;51.980;5.856;2023-05-15T04:07:09;28.33;;;23.85;;
67528;SDS011;54366;51.980;5.856;2023-05-15T04:09:41;24.30;;;20.92;;
67528;SDS011;54366;51.980;5.856;2023-05-15T04:12:14;31.80;;;25.52;;
67528;SDS011;54366;51.980;5.856;2023-05-15T04:14:47;28.75;;;22.60;;
67528;SDS011;54366;51.980;5.856;2023-05-15T04:17:13;24.98;;;21.63;;
67528;SDS011;54366;51.980;5.856;2023-05-15T04:19:46;30.33;;;23.60;;
67528;SDS011;54366;51.980;5.856;2023-05-15T04:22:25;23.52;;;20.35;;
67528;SDS011;54366;51.980;5.856;2023-05-15T04:24:58;25.98;;;21.48;;
67528;SDS011;54366;51.980;5.856;2023-05-15T04:27:31;25.92;;;21.40;;
67528;SDS011;54366;51.980;5.856;2023-05-15T04:29:57;25.10;;;21.95;;
67528;SDS011;54366;51.980;5.856;2023-05-15T04:32:31;24.63;;;20.95;;
67528;SDS011;54366;51.980;5.856;2023-05-15T04:35:07;30.30;;;24.15;;
67528;SDS011;54366;51.980;5.856;2023-05-15T04:37:43;22.60;;;19.25;;
67528;SDS011;54366;51.980;5.856;2023-05-15T04:40:12;27.75;;;21.27;;
67528;SDS011;54366;51.980;5.856;2023-05-15T04:42:47;23.25;;;19.40;;
67528;SDS011;54366;51.980;5.856;2023-05-15T04:45:13;26.67;;;22.67;;
67528;SDS011;54366;51.980;5.856;2023-05-15T04:47:46;29.15;;;23.23;;
67528;SDS011;54366;51.980;5.856;2023-05-15T04:50:19;31.13;;;24.05;;
67528;SDS011;54366;51.980;5.856;2023-05-15T04:52:52;33.22;;;28.35;;
67528;SDS011;54366;51.980;5.856;2023-05-15T04:55:18;27.67;;;23.02;;
67528;SDS011;54366;51.980;5.856;2023-05-15T04:57:51;23.98;;;20.27;;
67528;SDS011;54366;51.980;5.856;2023-05-15T05:00:17;24.60;;;21.42;;
67528;SDS011;54366;51.980;5.856;2023-05-15T05:02:50;30.00;;;25.20;;
67528;SDS011;54366;51.980;5.856;2023-05-15T05:05:17;31.35;;;24.30;;
67528;SDS011;54366;51.980;5.856;2023-05-15T05:07:49;24.63;;;21.45;;
67528;SDS011;54366;51.980;5.856;2023-05-15T05:10:23;21.98;;;19.60;;
67528;SDS011;54366;51.980;5.856;2023-05-15T05:12:56;23.55;;;19.05;;
67528;SDS011;54366;51.980;5.856;2023-05-15T05:15:29;18.75;;;16.75;;
67528;SDS011;54366;51.980;5.856;2023-05-15T05:17:55;27.27;;;24.20;;
67528;SDS011;54366;51.980;5.856;2023-05-15T05:20:28;21.33;;;19.05;;
67528;SDS011;54366;51.980;5.856;2023-05-15T05:23:14;19.80;;;17.70;;
67528;SDS011;54366;51.980;5.856;2023-05-15T05:25:54;24.63;;;21.42;;
67528;SDS011;54366;51.980;5.856;2023-05-15T05:28:27;20.63;;;18.42;;
67528;SDS011;54366;51.980;5.856;2023-05-15T05:31:00;19.02;;;17.02;;
67528;SDS011;54366;51.980;5.856;2023-05-15T05:33:34;21.55;;;18.25;;
67528;SDS011;54366;51.980;5.856;2023-05-15T05:36:07;19.95;;;17.85;;
67528;SDS011;54366;51.980;5.856;2023-05-15T05:38:40;25.10;;;22.23;;
67528;SDS011;54366;51.980;5.856;2023-05-15T05:41:13;24.25;;;21.15;;
67528;SDS011;54366;51.980;5.856;2023-05-15T05:43:46;21.75;;;19.05;;
67528;SDS011;54366;51.980;5.856;2023-05-15T05:46:19;22.25;;;19.63;;
67528;SDS011;54366;51.980;5.856;2023-05-15T05:48:52;20.75;;;18.55;;
67528;SDS011;54366;51.980;5.856;2023-05-15T05:51:18;18.85;;;16.85;;
67528;SDS011;54366;51.980;5.856;2023-05-15T05:53:51;16.92;;;15.13;;
67528;SDS011;54366;51.980;5.856;2023-05-15T05:56:24;23.98;;;21.25;;
67528;SDS011;54366;51.980;5.856;2023-05-15T05:58:57;18.83;;;16.77;;
67528;SDS011;54366;51.980;5.856;2023-05-15T06:01:26;20.10;;;17.75;;
67528;SDS011;54366;51.980;5.856;2023-05-15T06:03:59;24.23;;;19.40;;
67528;SDS011;54366;51.980;5.856;2023-05-15T06:06:32;19.80;;;17.80;;
67528;SDS011;54366;51.980;5.856;2023-05-15T06:09:05;15.90;;;14.05;;
67528;SDS011;54366;51.980;5.856;2023-05-15T06:11:38;16.92;;;15.18;;
67528;SDS011;54366;51.980;5.856;2023-05-15T06:14:05;19.67;;;17.58;;
67528;SDS011;54366;51.980;5.856;2023-05-15T06:16:39;18.90;;;16.90;;
67528;SDS011;54366;51.980;5.856;2023-05-15T06:19:12;25.30;;;21.95;;
67528;SDS011;54366;51.980;5.856;2023-05-15T06:21:52;19.17;;;17.20;;
67528;SDS011;54366;51.980;5.856;2023-05-15T06:24:31;17.77;;;16.00;;
67528;SDS011;54366;51.980;5.856;2023-05-15T06:27:04;20.10;;;17.70;;
67528;SDS011;54366;51.980;5.856;2023-05-15T06:29:37;19.17;;;16.98;;
67528;SDS011;54366;51.980;5.856;2023-05-15T06:32:04;18.17;;;16.48;;
67528;SDS011;54366;51.980;5.856;2023-05-15T06:34:37;17.98;;;16.13;;
67528;SDS011;54366;51.980;5.856;2023-05-15T06:37:04;19.20;;;17.23;;
67528;SDS011;54366;51.980;5.856;2023-05-15T06:39:37;19.03;;;17.03;;
67528;SDS011;54366;51.980;5.856;2023-05-15T06:42:10;22.00;;;18.73;;
67528;SDS011;54366;51.980;5.856;2023-05-15T06:44:45;20.52;;;18.23;;
67528;SDS011;54366;51.980;5.856;2023-05-15T06:47:12;19.88;;;17.88;;
67528;SDS011;54366;51.980;5.856;2023-05-15T06:49:44;19.10;;;17.13;;
67528;SDS011;54366;51.980;5.856;2023-05-15T06:52:17;18.48;;;16.60;;
67528;SDS011;54366;51.980;5.856;2023-05-15T06:54:51;18.67;;;16.77;;
67528;SDS011;54366;51.980;5.856;2023-05-15T06:57:24;17.38;;;15.55;;
67528;SDS011;54366;51.980;5.856;2023-05-15T06:59:50;16.77;;;14.73;;
67528;SDS011;54366;51.980;5.856;2023-05-15T07:02:23;16.92;;;15.23;;
67528;SDS011;54366;51.980;5.856;2023-05-15T07:04:56;17.48;;;15.63;;
67528;SDS011;54366;51.980;5.856;2023-05-15T07:07:29;19.23;;;17.42;;
67528;SDS011;54366;51.980;5.856;2023-05-15T07:09:55;17.17;;;15.52;;
67528;SDS011;54366;51.980;5.856;2023-05-15T07:12:28;17.83;;;16.02;;
67528;SDS011;54366;51.980;5.856;2023-05-15T07:15:01;16.73;;;15.18;;
67528;SDS011;54366;51.980;5.856;2023-05-15T07:17:34;16.80;;;15.20;;
67528;SDS011;54366;51.980;5.856;2023-05-15T07:20:07;18.30;;;16.40;;
67528;SDS011;54366;51.980;5.856;2023-05-15T07:22:34;16.00;;;14.50;;
67528;SDS011;54366;51.980;5.856;2023-05-15T07:25:07;16.17;;;14.75;;
67528;SDS011;54366;51.980;5.856;2023-05-15T07:27:40;16.67;;;14.90;;
67528;SDS011;54366;51.980;5.856;2023-05-15T07:30:13;14.93;;;13.63;;
67528;SDS011;54366;51.980;5.856;2023-05-15T07:32:46;15.98;;;14.50;;
67528;SDS011;54366;51.980;5.856;2023-05-15T07:35:19;15.43;;;13.95;;
67528;SDS011;54366;51.980;5.856;2023-05-15T07:37:52;15.70;;;14.10;;
67528;SDS011;54366;51.980;5.856;2023-05-15T07:40:18;16.13;;;14.43;;
67528;SDS011;54366;51.980;5.856;2023-05-15T07:42:51;13.95;;;12.75;;
67528;SDS011;54366;51.980;5.856;2023-05-15T07:45:24;13.50;;;12.30;;
67528;SDS011;54366;51.980;5.856;2023-05-15T07:47:57;11.82;;;10.73;;
67528;SDS011;54366;51.980;5.856;2023-05-15T07:50:24;13.55;;;12.25;;
67528;SDS011;54366;51.980;5.856;2023-05-15T07:52:57;11.77;;;10.75;;
67528;SDS011;54366;51.980;5.856;2023-05-15T07:55:30;11.70;;;10.55;;
67528;SDS011;54366;51.980;5.856;2023-05-15T07:57:56;11.30;;;10.30;;
67528;SDS011;54366;51.980;5.856;2023-05-15T08:00:30;11.95;;;10.75;;
67528;SDS011;54366;51.980;5.856;2023-05-15T08:03:03;11.60;;;10.60;;
67528;SDS011;54366;51.980;5.856;2023-05-15T08:05:36;10.85;;;9.95;;
67528;SDS011;54366;51.980;5.856;2023-05-15T08:08:09;10.45;;;9.55;;
67528;SDS011;54366;51.980;5.856;2023-05-15T08:10:35;11.30;;;10.25;;
67528;SDS011;54366;51.980;5.856;2023-05-15T08:13:08;9.43;;;8.60;;
67528;SDS011;54366;51.980;5.856;2023-05-15T08:15:41;9.90;;;8.85;;
67528;SDS011;54366;51.980;5.856;2023-05-15T08:18:14;9.88;;;8.93;;
67528;SDS011;54366;51.980;5.856;2023-05-15T08:20:48;8.35;;;7.55;;
67528;SDS011;54366;51.980;5.856;2023-05-15T08:23:20;9.73;;;8.00;;
67528;SDS011;54366;51.980;5.856;2023-05-15T08:25:53;9.18;;;8.25;;
67528;SDS011;54366;51.980;5.856;2023-05-15T08:28:26;10.38;;;8.70;;
67528;SDS011;54366;51.980;5.856;2023-05-15T08:30:52;9.50;;;8.60;;
67528;SDS011;54366;51.980;5.856;2023-05-15T08:33:25;9.07;;;8.27;;
67528;SDS011;54366;51.980;5.856;2023-05-15T08:35:51;13.82;;;12.52;;
67528;SDS011;54366;51.980;5.856;2023-05-15T08:38:24;14.38;;;12.88;;
67528;SDS011;54366;51.980;5.856;2023-05-15T08:40:59;15.15;;;13.75;;
67528;SDS011;54366;51.980;5.856;2023-05-15T08:43:37;13.20;;;11.93;;
67528;SDS011;54366;51.980;5.856;2023-05-15T08:46:12;14.32;;;12.98;;
67528;SDS011;54366;51.980;5.856;2023-05-15T08:48:45;15.27;;;13.75;;
67528;SDS011;54366;51.980;5.856;2023-05-15T08:51:12;13.90;;;12.68;;
67528;SDS011;54366;51.980;5.856;2023-05-15T08:53:45;14.10;;;12.70;;
67528;SDS011;54366;51.980;5.856;2023-05-15T08:56:18;13.20;;;11.93;;
67528;SDS011;54366;51.980;5.856;2023-05-15T08:58:51;13.88;;;12.55;;
67528;SDS011;54366;51.980;5.856;2023-05-15T09:01:18;12.50;;;10.85;;
67528;SDS011;54366;51.980;5.856;2023-05-15T09:03:50;11.07;;;10.05;;
67528;SDS011;54366;51.980;5.856;2023-05-15T09:06:23;10.02;;;9.10;;
67528;SDS011;54366;51.980;5.856;2023-05-15T09:08:56;9.43;;;8.48;;
67528;SDS011;54366;51.980;5.856;2023-05-15T09:11:25;8.50;;;7.70;;
67528;SDS011;54366;51.980;5.856;2023-05-15T09:13:59;8.55;;;7.57;;
67528;SDS011;54366;51.980;5.856;2023-05-15T09:16:32;10.68;;;9.68;;
67528;SDS011;54366;51.980;5.856;2023-05-15T09:19:20;10.68;;;9.60;;
67528;SDS011;54366;51.980;5.856;2023-05-15T09:21:53;9.05;;;8.32;;
67528;SDS011;54366;51.980;5.856;2023-05-15T09:24:40;10.73;;;9.73;;
67528;SDS011;54366;51.980;5.856;2023-05-15T09:27:12;9.88;;;8.38;;
67528;SDS011;54366;51.980;5.856;2023-05-15T09:29:45;10.98;;;8.00;;
67528;SDS011;54366;51.980;5.856;2023-05-15T09:32:12;9.43;;;8.63;;
67528;SDS011;54366;51.980;5.856;2023-05-15T09:34:46;8.38;;;7.57;;
67528;SDS011;54366;51.980;5.856;2023-05-15T09:37:29;10.27;;;9.25;;
67528;SDS011;54366;51.980;5.856;2023-05-15T09:40:07;7.80;;;7.10;;
67528;SDS011;54366;51.980;5.856;2023-05-15T09:42:40;7.72;;;7.03;;
67528;SDS011;54366;51.980;5.856;2023-05-15T09:45:10;10.65;;;9.75;;
67528;SDS011;54366;51.980;5.856;2023-05-15T09:47:49;9.05;;;8.10;;
67528;SDS011;54366;51.980;5.856;2023-05-15T09:50:23;10.38;;;9.38;;
67528;SDS011;54366;51.980;5.856;2023-05-15T09:53:04;8.68;;;7.90;;
67528;SDS011;54366;51.980;5.856;2023-05-15T09:55:31;9.80;;;8.93;;
67528;SDS011;54366;51.980;5.856;2023-05-15T09:58:08;8.55;;;7.75;;
67528;SDS011;54366;51.980;5.856;2023-05-15T10:00:44;9.13;;;8.43;;
67528;SDS011;54366;51.980;5.856;2023-05-15T10:03:17;9.73;;;8.77;;
67528;SDS011;54366;51.980;5.856;2023-05-15T10:08:30;8.70;;;8.00;;
67528;SDS011;54366;51.980;5.856;2023-05-15T10:11:03;9.85;;;8.70;;
67528;SDS011;54366;51.980;5.856;2023-05-15T10:13:30;9.18;;;8.48;;
67528;SDS011;54366;51.980;5.856;2023-05-15T10:16:06;8.27;;;7.55;;
67528;SDS011;54366;51.980;5.856;2023-05-15T10:18:39;8.60;;;7.90;;
67528;SDS011;54366;51.980;5.856;2023-05-15T10:21:12;10.45;;;9.52;;
67528;SDS011;54366;51.980;5.856;2023-05-15T10:23:49;9.07;;;8.13;;
67528;SDS011;54366;51.980;5.856;2023-05-15T10:26:40;12.10;;;10.93;;
67528;SDS011;54366;51.980;5.856;2023-05-15T10:29:16;10.35;;;9.38;;
67528;SDS011;54366;51.980;5.856;2023-05-15T10:31:52;10.63;;;9.73;;
67528;SDS011;54366;51.980;5.856;2023-05-15T10:34:25;10.55;;;9.55;;
67528;SDS011;54366;51.980;5.856;2023-05-15T10:36:53;14.30;;;12.85;;
67528;SDS011;54366;51.980;5.856;2023-05-15T10:39:27;14.73;;;13.43;;
67528;SDS011;54366;51.980;5.856;2023-05-15T10:42:00;12.43;;;11.30;;
67528;SDS011;54366;51.980;5.856;2023-05-15T10:44:34;9.40;;;8.50;;
67528;SDS011;54366;51.980;5.856;2023-05-15T10:47:00;7.70;;;6.90;;
67528;SDS011;54366;51.980;5.856;2023-05-15T10:49:35;8.18;;;7.30;;
67528;SDS011;54366;51.980;5.856;2023-05-15T10:52:08;8.52;;;7.72;;
67528;SDS011;54366;51.980;5.856;2023-05-15T10:54:41;8.18;;;7.47;;
67528;SDS011;54366;51.980;5.856;2023-05-15T10:57:08;8.93;;;8.07;;
67528;SDS011;54366;51.980;5.856;2023-05-15T10:59:41;9.27;;;8.23;;
67528;SDS011;54366;51.980;5.856;2023-05-15T11:02:19;8.80;;;7.90;;
67528;SDS011;54366;51.980;5.856;2023-05-15T11:04:58;9.52;;;8.60;;
67528;SDS011;54366;51.980;5.856;2023-05-15T11:07:32;8.27;;;7.57;;
67528;SDS011;54366;51.980;5.856;2023-05-15T11:10:48;9.35;;;8.27;;
67528;SDS011;54366;51.980;5.856;2023-05-15T11:13:10;11.18;;;10.10;;
67528;SDS011;54366;51.980;5.856;2023-05-15T11:15:44;8.30;;;7.50;;
67528;SDS011;54366;51.980;5.856;2023-05-15T11:23:56;10.35;;;9.35;;
67528;SDS011;54366;51.980;5.856;2023-05-15T11:26:34;13.80;;;12.50;;
67528;SDS011;54366;51.980;5.856;2023-05-15T11:29:17;9.88;;;8.98;;
67528;SDS011;54366;51.980;5.856;2023-05-15T11:31:50;12.52;;;11.32;;
67528;SDS011;54366;51.980;5.856;2023-05-15T11:34:29;12.25;;;11.13;;
67528;SDS011;54366;51.980;5.856;2023-05-15T11:37:08;12.50;;;11.30;;
67528;SDS011;54366;51.980;5.856;2023-05-15T11:39:51;11.45;;;10.35;;
67528;SDS011;54366;51.980;5.856;2023-05-15T11:42:24;13.07;;;11.85;;
67528;SDS011;54366;51.980;5.856;2023-05-15T11:44:58;16.17;;;14.48;;
67528;SDS011;54366;51.980;5.856;2023-05-15T11:47:25;12.43;;;11.32;;
67528;SDS011;54366;51.980;5.856;2023-05-15T11:50:01;11.40;;;10.50;;
67528;SDS011;54366;51.980;5.856;2023-05-15T11:52:36;16.75;;;15.15;;
67528;SDS011;54366;51.980;5.856;2023-05-15T11:55:09;16.52;;;15.00;;
67528;SDS011;54366;51.980;5.856;2023-05-15T11:57:44;16.15;;;14.55;;
67528;SDS011;54366;51.980;5.856;2023-05-15T12:00:17;18.88;;;16.88;;
67528;SDS011;54366;51.980;5.856;2023-05-15T12:02:50;20.10;;;18.00;;
67528;SDS011;54366;51.980;5.856;2023-05-15T12:05:23;20.98;;;18.88;;
67528;SDS011;54366;51.980;5.856;2023-05-15T12:07:56;19.00;;;17.13;;
67528;SDS011;54366;51.980;5.856;2023-05-15T12:10:29;22.45;;;20.25;;
67528;SDS011;54366;51.980;5.856;2023-05-15T12:13:02;21.67;;;19.48;;
67528;SDS011;54366;51.980;5.856;2023-05-15T12:15:40;21.42;;;19.33;;
67528;SDS011;54366;51.980;5.856;2023-05-15T12:18:14;24.10;;;21.70;;
67528;SDS011;54366;51.980;5.856;2023-05-15T12:20:49;25.80;;;22.88;;
67528;SDS011;54366;51.980;5.856;2023-05-15T12:23:30;23.83;;;21.40;;
67528;SDS011;54366;51.980;5.856;2023-05-15T12:26:10;19.48;;;17.48;;
67528;SDS011;54366;51.980;5.856;2023-05-15T12:28:43;22.70;;;20.40;;
67528;SDS011;54366;51.980;5.856;2023-05-15T12:31:16;26.08;;;22.75;;
67528;SDS011;54366;51.980;5.856;2023-05-15T12:33:50;25.75;;;21.48;;
67528;SDS011;54366;51.980;5.856;2023-05-15T12:36:23;23.92;;;21.42;;
67528;SDS011;54366;51.980;5.856;2023-05-15T12:39:04;25.80;;;23.05;;
67528;SDS011;54366;51.980;5.856;2023-05-15T12:41:38;34.97;;;31.25;;
67528;SDS011;54366;51.980;5.856;2023-05-15T12:44:15;36.15;;;32.33;;
67528;SDS011;54366;51.980;5.856;2023-05-15T12:46:48;29.98;;;26.60;;
67528;SDS011;54366;51.980;5.856;2023-05-15T12:49:26;28.67;;;25.77;;
67528;SDS011;54366;51.980;5.856;2023-05-15T12:52:06;34.88;;;29.35;;
67528;SDS011;54366;51.980;5.856;2023-05-15T12:54:39;28.98;;;25.92;;
67528;SDS011;54366;51.980;5.856;2023-05-15T12:57:12;32.03;;;28.65;;
67528;SDS011;54366;51.980;5.856;2023-05-15T12:59:45;34.45;;;29.77;;
67528;SDS011;54366;51.980;5.856;2023-05-15T13:02:18;31.27;;;27.98;;
67528;SDS011;54366;51.980;5.856;2023-05-15T13:04:51;35.17;;;31.48;;
67528;SDS011;54366;51.980;5.856;2023-05-15T13:07:24;33.78;;;29.67;;
67528;SDS011;54366;51.980;5.856;2023-05-15T13:10:01;31.95;;;28.55;;
67528;SDS011;54366;51.980;5.856;2023-05-15T13:12:41;26.23;;;21.70;;
67528;SDS011;54366;51.980;5.856;2023-05-15T13:15:28;23.42;;;20.98;;
67528;SDS011;54366;51.980;5.856;2023-05-15T13:18:12;26.48;;;23.65;;
67528;SDS011;54366;51.980;5.856;2023-05-15T13:20:47;24.50;;;21.92;;
67528;SDS011;54366;51.980;5.856;2023-05-15T13:23:17;24.75;;;21.95;;
67528;SDS011;54366;51.980;5.856;2023-05-15T13:25:57;22.25;;;19.95;;
67528;SDS011;54366;51.980;5.856;2023-05-15T13:28:29;23.15;;;20.58;;
67528;SDS011;54366;51.980;5.856;2023-05-15T13:31:02;21.70;;;19.02;;
67528;SDS011;54366;51.980;5.856;2023-05-15T13:33:35;20.52;;;18.35;;
67528;SDS011;54366;51.980;5.856;2023-05-15T13:36:08;20.48;;;18.10;;
67528;SDS011;54366;51.980;5.856;2023-05-15T13:38:41;23.13;;;20.73;;
67528;SDS011;54366;51.980;5.856;2023-05-15T13:41:14;23.27;;;20.88;;
67528;SDS011;54366;51.980;5.856;2023-05-15T13:43:47;21.95;;;19.55;;
67528;SDS011;54366;51.980;5.856;2023-05-15T13:46:20;21.27;;;19.05;;
67528;SDS011;54366;51.980;5.856;2023-05-15T13:48:47;24.25;;;21.52;;
67528;SDS011;54366;51.980;5.856;2023-05-15T13:51:19;20.92;;;18.88;;
67528;SDS011;54366;51.980;5.856;2023-05-15T13:53:52;22.10;;;19.85;;
67528;SDS011;54366;51.980;5.856;2023-05-15T13:56:19;20.38;;;18.27;;
67528;SDS011;54366;51.980;5.856;2023-05-15T13:58:51;19.20;;;17.30;;
67528;SDS011;54366;51.980;5.856;2023-05-15T14:01:24;22.58;;;20.27;;
67528;SDS011;54366;51.980;5.856;2023-05-15T14:03:51;21.48;;;19.27;;
67528;SDS011;54366;51.980;5.856;2023-05-15T14:06:24;17.75;;;16.00;;
67528;SDS011;54366;51.980;5.856;2023-05-15T14:08:58;17.15;;;15.50;;
67528;SDS011;54366;51.980;5.856;2023-05-15T14:11:32;16.00;;;14.40;;
67528;SDS011;54366;51.980;5.856;2023-05-15T14:14:05;15.27;;;13.68;;
67528;SDS011;54366;51.980;5.856;2023-05-15T14:16:38;16.88;;;15.18;;
67528;SDS011;54366;51.980;5.856;2023-05-15T14:19:11;17.35;;;15.60;;
67528;SDS011;54366;51.980;5.856;2023-05-15T14:21:44;17.48;;;15.73;;
67528;SDS011;54366;51.980;5.856;2023-05-15T14:24:17;16.30;;;14.60;;
67528;SDS011;54366;51.980;5.856;2023-05-15T14:27:04;15.68;;;13.95;;
67528;SDS011;54366;51.980;5.856;2023-05-15T14:29:38;14.68;;;13.15;;
67528;SDS011;54366;51.980;5.856;2023-05-15T14:32:10;17.02;;;14.32;;
67528;SDS011;54366;51.980;5.856;2023-05-15T14:34:43;16.85;;;15.15;;
67528;SDS011;54366;51.980;5.856;2023-05-15T14:37:10;14.80;;;13.27;;
67528;SDS011;54366;51.980;5.856;2023-05-15T14:39:42;17.52;;;15.60;;
67528;SDS011;54366;51.980;5.856;2023-05-15T14:42:15;14.38;;;12.98;;
67528;SDS011;54366;51.980;5.856;2023-05-15T14:44:49;14.48;;;13.07;;
67528;SDS011;54366;51.980;5.856;2023-05-15T14:47:22;13.73;;;12.43;;
67528;SDS011;54366;51.980;5.856;2023-05-15T14:49:56;14.18;;;12.77;;
67528;SDS011;54366;51.980;5.856;2023-05-15T14:52:29;16.08;;;14.57;;
67528;SDS011;54366;51.980;5.856;2023-05-15T14:54:56;13.95;;;12.65;;
67528;SDS011;54366;51.980;5.856;2023-05-15T14:57:29;15.85;;;14.25;;
67528;SDS011;54366;51.980;5.856;2023-05-15T15:00:03;18.52;;;16.67;;
67528;SDS011;54366;51.980;5.856;2023-05-15T15:02:30;31.45;;;20.95;;
67528;SDS011;54366;51.980;5.856;2023-05-15T15:05:03;16.17;;;14.57;;
67528;SDS011;54366;51.980;5.856;2023-05-15T15:07:30;14.13;;;12.63;;
67528;SDS011;54366;51.980;5.856;2023-05-15T15:10:35;12.50;;;11.10;;
67528;SDS011;54366;51.980;5.856;2023-05-15T15:13:03;15.50;;;13.95;;
67528;SDS011;54366;51.980;5.856;2023-05-15T15:15:36;13.18;;;11.77;;